createdAt,value
2022-11-05T00:01:31.744Z,9.09
2022-11-05T00:04:16.504Z,9.07
2022-11-05T00:06:58.036Z,9.08
2022-11-05T00:09:31.164Z,9.07
2022-11-05T00:12:17.217Z,9.06
2022-11-05T00:15:01.610Z,9.06
2022-11-05T00:17:28.464Z,9.04
2022-11-05T00:19:55.913Z,9.02
2022-11-05T00:22:40.839Z,9.02
2022-11-05T00:25:16.914Z,9.01
2022-11-05T00:27:43.972Z,8.99
2022-11-05T00:30:13.218Z,8.97
2022-11-05T00:32:40.359Z,8.97
2022-11-05T00:35:08.949Z,8.96
2022-11-05T00:37:35.973Z,8.96
2022-11-05T00:40:02.896Z,8.96
2022-11-05T00:42:47.335Z,8.97
2022-11-05T00:45:14.688Z,8.98
2022-11-05T00:48:00.717Z,8.97
2022-11-05T00:50:28.337Z,8.98
2022-11-05T00:52:57.561Z,8.97
2022-11-05T00:55:25.159Z,8.96
2022-11-05T00:57:52.272Z,8.94
2022-11-05T01:00:19.772Z,8.92
2022-11-05T01:02:46.868Z,8.89
2022-11-05T01:05:14.285Z,8.88
2022-11-05T01:07:41.334Z,8.87
2022-11-05T01:10:09.849Z,8.86
2022-11-05T01:12:36.782Z,8.86
2022-11-05T01:15:04.034Z,8.87
2022-11-05T01:17:31.022Z,8.89
2022-11-05T01:19:57.973Z,8.89
2022-11-05T01:22:24.852Z,8.89
2022-11-05T01:24:51.771Z,8.88
2022-11-05T01:27:20.068Z,8.85
2022-11-05T01:29:47.028Z,8.84
2022-11-05T01:32:14.041Z,8.83
2022-11-05T01:34:41.042Z,8.84
2022-11-05T01:37:07.899Z,8.85
2022-11-05T01:39:34.764Z,8.86
2022-11-05T01:42:01.884Z,8.88
2022-11-05T01:44:59.141Z,8.89
2022-11-05T01:47:39.802Z,8.89
2022-11-05T01:50:18.815Z,8.87
2022-11-05T01:52:45.760Z,8.84
2022-11-05T01:55:14.518Z,8.84
2022-11-05T01:57:41.813Z,8.83
2022-11-05T02:00:10.609Z,8.82
2022-11-05T02:02:40.183Z,8.81
2022-11-05T02:05:11.168Z,8.79
2022-11-05T02:07:38.241Z,8.77
2022-11-05T02:10:08.389Z,8.77
2022-11-05T02:12:37.687Z,8.79
2022-11-05T02:15:04.858Z,8.80
2022-11-05T02:17:43.580Z,8.81
2022-11-05T02:20:27.082Z,8.81
2022-11-05T02:23:15.336Z,8.80
2022-11-05T02:26:07.413Z,8.77
2022-11-05T02:28:56.036Z,8.74
2022-11-05T02:31:32.613Z,8.71
2022-11-05T02:34:05.764Z,8.67
2022-11-05T02:36:43.095Z,8.66
2022-11-05T02:39:20.768Z,8.66
2022-11-05T02:41:59.306Z,8.65
2022-11-05T02:44:42.618Z,8.65
2022-11-05T02:47:18.408Z,8.63
2022-11-05T02:49:53.058Z,8.61
2022-11-05T02:52:26.429Z,8.59
2022-11-05T02:55:00.177Z,8.54
2022-11-05T02:57:29.853Z,8.52
2022-11-05T03:00:06.821Z,8.48
2022-11-05T03:02:33.037Z,8.47
2022-11-05T03:05:00.905Z,8.46
2022-11-05T03:07:39.518Z,8.44
2022-11-05T03:10:35.166Z,8.46
2022-11-05T03:13:12.241Z,8.44
2022-11-05T03:15:54.874Z,8.41
2022-11-05T03:18:27.722Z,8.39
2022-11-05T03:21:02.449Z,8.37
2022-11-05T03:23:34.634Z,8.35
2022-11-05T03:26:07.171Z,8.35
2022-11-05T03:28:39.942Z,8.32
2022-11-05T03:31:09.095Z,8.30
2022-11-05T03:33:38.649Z,8.30
2022-11-05T03:36:14.202Z,8.27
2022-11-05T03:38:45.099Z,8.26
2022-11-05T03:41:17.188Z,8.24
2022-11-05T03:43:49.307Z,8.22
2022-11-05T03:46:21.673Z,8.19
2022-11-05T03:48:53.060Z,8.15
2022-11-05T03:51:28.583Z,8.08
2022-11-05T03:53:59.688Z,8.03
2022-11-05T03:56:34.207Z,8.00
2022-11-05T03:59:03.273Z,7.98
2022-11-05T04:01:31.175Z,8.00
2022-11-05T04:03:58.433Z,8.00
2022-11-05T04:06:43.157Z,7.99
2022-11-05T04:09:27.818Z,7.97
2022-11-05T04:12:12.563Z,7.94
2022-11-05T04:14:39.584Z,7.92
2022-11-05T04:17:10.425Z,7.90
2022-11-05T04:19:56.518Z,7.90
2022-11-05T04:22:41.253Z,7.90
2022-11-05T04:25:08.515Z,7.87
2022-11-05T04:27:35.810Z,7.87
2022-11-05T04:30:21.992Z,7.86
2022-11-05T04:33:07.337Z,7.87
2022-11-05T04:35:36.825Z,7.87
2022-11-05T04:38:04.308Z,7.89
2022-11-05T04:40:31.586Z,7.93
2022-11-05T04:42:59.131Z,7.95
2022-11-05T04:45:27.432Z,7.96
2022-11-05T04:47:54.639Z,7.95
2022-11-05T04:50:22.030Z,7.95
2022-11-05T04:52:49.017Z,7.96
2022-11-05T04:55:16.388Z,7.95
2022-11-05T04:57:43.596Z,7.93
2022-11-05T05:00:12.086Z,7.89
2022-11-05T05:02:39.611Z,7.85
2022-11-05T05:05:07.168Z,7.82
2022-11-05T05:07:35.243Z,7.78
2022-11-05T05:10:02.597Z,7.75
2022-11-05T05:12:29.788Z,7.72
2022-11-05T05:14:56.801Z,7.66
2022-11-05T05:17:23.784Z,7.63
2022-11-05T05:20:08.606Z,7.61
2022-11-05T05:22:35.577Z,7.58
2022-11-05T05:25:02.699Z,7.55
2022-11-05T05:27:30.385Z,7.52
2022-11-05T05:29:57.928Z,7.50
2022-11-05T05:32:26.018Z,7.49
2022-11-05T05:34:53.045Z,7.49
2022-11-05T05:37:21.290Z,7.48
2022-11-05T05:39:48.901Z,7.46
2022-11-05T05:42:16.797Z,7.42
2022-11-05T05:44:43.840Z,7.38
2022-11-05T05:47:10.956Z,7.36
2022-11-05T05:49:38.092Z,7.35
2022-11-05T05:52:05.554Z,7.32
2022-11-05T05:54:37.091Z,7.31
2022-11-05T05:57:07.215Z,7.28
2022-11-05T05:59:34.296Z,7.27
2022-11-05T06:02:01.811Z,7.25
2022-11-05T06:04:29.520Z,7.23
2022-11-05T06:06:56.692Z,7.23
2022-11-05T06:09:23.698Z,7.22
2022-11-05T06:11:50.570Z,7.21
2022-11-05T06:14:17.504Z,7.20
2022-11-05T06:16:44.763Z,7.21
2022-11-05T06:19:12.027Z,7.22
2022-11-05T06:21:39.399Z,7.22
2022-11-05T06:24:07.018Z,7.21
2022-11-05T06:26:33.970Z,7.20
2022-11-05T06:29:00.919Z,7.20
2022-11-05T06:31:27.962Z,7.19
2022-11-05T06:33:55.089Z,7.19
2022-11-05T06:36:22.856Z,7.20
2022-11-05T06:38:49.995Z,7.23
2022-11-05T06:41:16.985Z,7.27
2022-11-05T06:43:44.434Z,7.28
2022-11-05T06:46:13.116Z,7.30
2022-11-05T06:48:40.362Z,7.31
2022-11-05T06:51:08.534Z,7.33
2022-11-05T06:53:36.210Z,7.34
2022-11-05T06:56:07.035Z,7.37
2022-11-05T06:58:34.882Z,7.40
2022-11-05T07:01:05.664Z,7.43
2022-11-05T07:03:32.807Z,7.45
2022-11-05T07:06:02.119Z,7.48
2022-11-05T07:08:31.388Z,7.50
2022-11-05T07:10:58.324Z,7.52
2022-11-05T07:13:26.648Z,7.55
2022-11-05T07:15:53.982Z,7.58
2022-11-05T07:18:21.164Z,7.61
2022-11-05T07:20:48.976Z,7.64
2022-11-05T07:23:17.299Z,7.65
2022-11-05T07:25:45.124Z,7.69
2022-11-05T07:28:14.470Z,7.71
2022-11-05T07:30:41.671Z,7.74
2022-11-05T07:33:10.579Z,7.76
2022-11-05T07:35:37.741Z,7.78
2022-11-05T07:38:04.951Z,7.80
2022-11-05T07:40:32.499Z,7.82
2022-11-05T07:43:01.064Z,7.84
2022-11-05T07:45:29.379Z,7.85
2022-11-05T07:47:58.092Z,7.87
2022-11-05T07:50:27.418Z,7.90
2022-11-05T07:52:54.830Z,7.92
2022-11-05T07:55:22.654Z,7.92
2022-11-05T07:57:51.545Z,7.91
2022-11-05T08:00:21.638Z,7.91
2022-11-05T08:03:09.301Z,7.95
2022-11-05T08:05:46.295Z,7.96
2022-11-05T08:08:14.845Z,7.94
2022-11-05T08:10:42.318Z,7.94
2022-11-05T08:13:11.127Z,7.93
2022-11-05T08:15:38.854Z,7.93
2022-11-05T08:18:07.560Z,7.93
2022-11-05T08:20:35.100Z,7.93
2022-11-05T08:23:02.111Z,7.94
2022-11-05T08:25:30.077Z,7.98
2022-11-05T08:28:01.489Z,8.01
2022-11-05T08:30:29.405Z,8.01
2022-11-05T08:32:59.978Z,8.02
2022-11-05T08:35:27.389Z,8.04
2022-11-05T08:37:56.644Z,8.05
2022-11-05T08:40:23.526Z,8.03
2022-11-05T08:42:50.549Z,8.03
2022-11-05T08:45:17.953Z,8.03
2022-11-05T08:47:44.997Z,8.02
2022-11-05T08:50:12.748Z,8.03
2022-11-05T08:52:42.565Z,8.04
2022-11-05T08:55:10.943Z,8.06
2022-11-05T08:57:37.972Z,8.08
2022-11-05T09:00:06.245Z,8.12
2022-11-05T09:02:33.531Z,8.14
2022-11-05T09:05:00.516Z,8.14
2022-11-05T09:07:27.406Z,8.16
2022-11-05T09:09:54.542Z,8.15
2022-11-05T09:12:22.231Z,8.15
2022-11-05T09:14:49.399Z,8.16
2022-11-05T09:17:20.597Z,8.17
2022-11-05T09:19:48.041Z,8.18
2022-11-05T09:22:15.131Z,8.20
2022-11-05T09:24:43.659Z,8.23
2022-11-05T09:27:11.998Z,8.25
2022-11-05T09:29:38.964Z,8.25
2022-11-05T09:32:05.978Z,8.26
2022-11-05T09:34:33.219Z,8.28
2022-11-05T09:37:00.838Z,8.29
2022-11-05T09:39:27.920Z,8.30
2022-11-05T09:41:58.738Z,8.33
2022-11-05T09:44:33.460Z,8.37
2022-11-05T09:47:03.914Z,8.38
2022-11-05T09:49:35.317Z,8.41
2022-11-05T09:52:03.028Z,8.45
2022-11-05T09:54:33.370Z,8.50
2022-11-05T09:57:01.839Z,8.54
2022-11-05T09:59:32.935Z,8.59
2022-11-05T10:02:05.294Z,8.63
2022-11-05T10:04:34.213Z,8.64
2022-11-05T10:07:05.404Z,8.66
2022-11-05T10:09:37.737Z,8.71
2022-11-05T10:12:08.897Z,8.81
2022-11-05T10:14:42.812Z,8.91
2022-11-05T10:17:13.605Z,8.98
2022-11-05T10:19:45.643Z,9.01
2022-11-05T10:22:16.322Z,9.03
2022-11-05T10:24:46.507Z,9.04
2022-11-05T10:27:19.554Z,9.03
2022-11-05T10:29:47.029Z,9.03
2022-11-05T10:32:21.403Z,9.04
2022-11-05T10:34:48.519Z,9.04
2022-11-05T10:37:15.545Z,9.06
2022-11-05T10:39:42.780Z,9.07
2022-11-05T10:42:22.322Z,9.08
2022-11-05T10:44:57.215Z,9.06
2022-11-05T10:47:41.504Z,9.05
2022-11-05T10:50:13.126Z,9.05
2022-11-05T10:52:43.598Z,9.06
2022-11-05T10:55:19.928Z,9.08
2022-11-05T10:57:48.538Z,9.10
2022-11-05T11:00:29.447Z,9.15
2022-11-05T11:02:58.001Z,9.19
2022-11-05T11:05:28.423Z,9.19
2022-11-05T11:07:59.757Z,9.19
2022-11-05T11:10:27.807Z,9.15
2022-11-05T11:12:56.161Z,9.14
2022-11-05T11:15:27.776Z,9.10
2022-11-05T11:17:55.433Z,9.07
2022-11-05T11:20:28.885Z,9.06
2022-11-05T11:23:12.722Z,9.07
2022-11-05T11:25:47.515Z,9.07
2022-11-05T11:28:23.067Z,9.08
2022-11-05T11:30:58.289Z,9.09
2022-11-05T11:33:29.717Z,9.12
2022-11-05T11:35:57.938Z,9.13
2022-11-05T11:38:26.720Z,9.12
2022-11-05T11:41:00.938Z,9.12
2022-11-05T11:43:31.737Z,9.14
2022-11-05T11:46:04.890Z,9.16
2022-11-05T11:48:36.301Z,9.18
2022-11-05T11:51:20.053Z,9.19
2022-11-05T11:53:48.504Z,9.23
2022-11-05T11:56:22.932Z,9.24
2022-11-05T11:58:51.854Z,9.25
2022-11-05T12:01:52.434Z,9.25
2022-11-05T12:04:42.306Z,9.24
2022-11-05T12:07:20.738Z,9.23
2022-11-05T12:10:18.551Z,9.23
2022-11-05T12:12:58.817Z,9.23
2022-11-05T12:15:41.621Z,9.23
2022-11-05T12:18:14.612Z,9.24
2022-11-05T12:21:06.620Z,9.24
2022-11-05T12:23:58.167Z,9.23
2022-11-05T12:26:35.558Z,9.22
2022-11-05T12:29:19.492Z,9.24
2022-11-05T12:31:56.964Z,9.26
2022-11-05T12:34:38.827Z,9.28
2022-11-05T12:37:31.815Z,9.29
2022-11-05T12:40:31.582Z,9.30
2022-11-05T12:43:15.749Z,9.33
2022-11-05T12:45:51.437Z,9.39
2022-11-05T12:48:37.567Z,9.45
2022-11-05T12:51:16.100Z,9.48
2022-11-05T12:53:57.700Z,9.52
2022-11-05T12:56:35.896Z,9.54
2022-11-05T12:59:07.490Z,9.55
2022-11-05T13:01:40.359Z,9.56
2022-11-05T13:04:15.219Z,9.55
2022-11-05T13:06:46.360Z,9.55
2022-11-05T13:09:18.432Z,9.55
2022-11-05T13:11:52.520Z,9.55
2022-11-05T13:14:23.436Z,9.52
2022-11-05T13:16:55.052Z,9.51
2022-11-05T13:19:25.962Z,9.51
2022-11-05T13:22:08.014Z,9.51
2022-11-05T13:24:40.846Z,9.51
2022-11-05T13:27:32.075Z,9.53
2022-11-05T13:30:03.214Z,9.52
2022-11-05T13:32:34.048Z,9.52
2022-11-05T13:35:03.279Z,9.53
2022-11-05T13:37:50.033Z,9.53
2022-11-05T13:40:22.532Z,9.54
2022-11-05T13:43:11.249Z,9.53
2022-11-05T13:45:59.050Z,9.53
2022-11-05T13:49:02.728Z,9.54
2022-11-05T13:51:53.663Z,9.56
2022-11-05T13:55:14.914Z,9.58
2022-11-05T13:58:05.799Z,9.60
2022-11-05T14:00:38.306Z,9.62
2022-11-05T14:03:07.949Z,9.61
2022-11-05T14:05:36.972Z,9.59
2022-11-05T14:08:12.866Z,9.58
2022-11-05T14:10:42.983Z,9.59
2022-11-05T14:13:32.595Z,9.63
2022-11-05T14:16:06.168Z,9.67
2022-11-05T14:18:43.483Z,9.69
2022-11-05T14:21:32.441Z,9.73
2022-11-05T14:24:00.950Z,9.79
2022-11-05T14:26:30.129Z,9.77
2022-11-05T14:29:24.528Z,9.75
2022-11-05T14:32:11.264Z,9.70
2022-11-05T14:34:48.605Z,9.66
2022-11-05T14:37:28.138Z,9.62
2022-11-05T14:39:56.668Z,9.59
2022-11-05T14:42:27.732Z,9.55
2022-11-05T14:45:09.495Z,9.49
2022-11-05T14:47:40.071Z,9.45
2022-11-05T14:50:19.633Z,9.42
2022-11-05T14:52:54.913Z,9.38
2022-11-05T14:55:30.751Z,9.36
2022-11-05T14:58:29.039Z,9.36
2022-11-05T15:00:57.430Z,9.35
2022-11-05T15:03:47.431Z,9.34
2022-11-05T15:06:33.129Z,9.31
2022-11-05T15:09:30.940Z,9.28
2022-11-05T15:12:11.294Z,9.25
2022-11-05T15:14:50.511Z,9.23
2022-11-05T15:17:26.795Z,9.21
2022-11-05T15:19:55.138Z,9.19
2022-11-05T15:22:30.546Z,9.20
2022-11-05T15:24:57.882Z,9.20
2022-11-05T15:27:38.128Z,9.20
2022-11-05T15:30:17.200Z,9.19
2022-11-05T15:32:44.680Z,9.19
2022-11-05T15:35:24.814Z,9.17
2022-11-05T15:38:00.357Z,9.15
2022-11-05T15:40:31.924Z,9.13
2022-11-05T15:43:19.848Z,9.09
2022-11-05T15:46:00.850Z,9.08
2022-11-05T15:48:28.255Z,9.07
2022-11-05T15:50:55.468Z,9.06
2022-11-05T15:56:27.619Z,9.07
2022-11-05T15:59:00.490Z,9.09
2022-11-05T16:01:30.793Z,9.13
2022-11-05T16:04:05.705Z,9.13
2022-11-05T16:06:42.505Z,9.14
2022-11-05T16:09:21.340Z,9.17
2022-11-05T16:11:48.673Z,9.20
2022-11-05T16:14:20.654Z,9.22
2022-11-05T16:16:48.082Z,9.22
2022-11-05T16:19:40.270Z,9.25
2022-11-05T16:22:08.301Z,9.27
2022-11-05T16:24:35.452Z,9.29
2022-11-05T16:27:04.401Z,9.29
2022-11-05T16:29:40.482Z,9.30
2022-11-05T16:32:16.199Z,9.28
2022-11-05T16:34:48.428Z,9.27
2022-11-05T16:37:18.236Z,9.25
2022-11-05T16:39:45.999Z,9.25
2022-11-05T16:42:39.066Z,9.29
2022-11-05T16:45:07.888Z,9.31
2022-11-05T16:47:36.736Z,9.32
2022-11-05T16:50:03.782Z,9.32
2022-11-05T16:52:31.441Z,9.30
2022-11-05T16:54:58.826Z,9.31
2022-11-05T16:57:31.545Z,9.35
2022-11-05T16:59:59.751Z,9.37
2022-11-05T17:02:28.568Z,9.36
2022-11-05T17:04:55.762Z,9.36
2022-11-05T17:07:23.062Z,9.39
2022-11-05T17:09:50.374Z,9.40
2022-11-05T17:12:17.969Z,9.41
2022-11-05T17:14:45.616Z,9.45
2022-11-05T17:17:13.011Z,9.48
2022-11-05T17:19:42.697Z,9.53
2022-11-05T17:22:09.955Z,9.58
2022-11-05T17:24:38.997Z,9.64
2022-11-05T17:27:06.385Z,9.68
2022-11-05T17:29:33.974Z,9.71
2022-11-05T17:32:01.324Z,9.74
2022-11-05T17:34:28.639Z,9.79
2022-11-05T17:36:56.072Z,9.81
2022-11-05T17:39:30.298Z,9.83
2022-11-05T17:41:58.834Z,9.87
2022-11-05T17:44:26.412Z,9.91
2022-11-05T17:46:53.739Z,9.95
2022-11-05T17:49:21.501Z,9.97
2022-11-05T17:51:49.284Z,9.99
2022-11-05T17:54:17.314Z,10.00
2022-11-05T17:56:51.345Z,9.99
2022-11-05T17:59:20.058Z,9.99
2022-11-05T18:01:47.526Z,9.98
2022-11-05T18:04:15.086Z,9.97
2022-11-05T18:06:43.143Z,9.96
2022-11-05T18:09:11.569Z,9.94
2022-11-05T18:11:40.131Z,9.94
2022-11-05T18:14:07.676Z,9.95
2022-11-05T18:16:34.819Z,9.97
2022-11-05T18:19:01.694Z,9.97
2022-11-05T18:21:29.061Z,9.97
2022-11-05T18:23:56.368Z,9.95
2022-11-05T18:26:23.392Z,9.96
2022-11-05T18:28:50.655Z,9.96
2022-11-05T18:31:21.229Z,9.95
2022-11-05T18:33:48.338Z,9.91
2022-11-05T18:36:21.380Z,9.86
2022-11-05T18:38:48.705Z,9.82
2022-11-05T18:41:16.254Z,9.79
2022-11-05T18:43:43.521Z,9.76
2022-11-05T18:46:29.162Z,9.73
2022-11-05T18:48:56.617Z,9.69
2022-11-05T18:51:23.917Z,9.64
2022-11-05T18:53:50.777Z,9.60
2022-11-05T18:56:20.390Z,9.59
2022-11-05T18:58:47.556Z,9.58
2022-11-05T19:01:17.825Z,9.57
2022-11-05T19:03:45.579Z,9.55
2022-11-05T19:06:13.141Z,9.51
2022-11-05T19:08:40.643Z,9.50
2022-11-05T19:11:12.659Z,9.48
2022-11-05T19:13:39.889Z,9.45
2022-11-05T19:16:11.265Z,9.44
2022-11-05T19:18:38.663Z,9.43
2022-11-05T19:21:10.548Z,9.42
2022-11-05T19:23:38.962Z,9.40
2022-11-05T19:26:08.905Z,9.38
2022-11-05T19:28:35.985Z,9.35
2022-11-05T19:31:03.276Z,9.35
2022-11-05T19:33:30.381Z,9.36
2022-11-05T19:35:57.713Z,9.36
2022-11-05T19:38:26.037Z,9.36
2022-11-05T19:40:53.450Z,9.35
2022-11-05T19:43:20.583Z,9.37
2022-11-05T19:45:47.463Z,9.41
2022-11-05T19:48:19.157Z,9.43
2022-11-05T19:50:46.539Z,9.45
2022-11-05T19:53:13.499Z,9.50
2022-11-05T19:55:45.018Z,9.52
2022-11-05T19:58:12.438Z,9.55
2022-11-05T20:00:39.778Z,9.56
2022-11-05T20:03:07.159Z,9.57
2022-11-05T20:05:34.741Z,9.59
2022-11-05T20:08:01.791Z,9.60
2022-11-05T20:10:28.644Z,9.60
2022-11-05T20:12:55.607Z,9.61
2022-11-05T20:15:23.237Z,9.62
2022-11-05T20:17:53.562Z,9.63
2022-11-05T20:20:21.155Z,9.64
2022-11-05T20:22:48.300Z,9.66
2022-11-05T20:25:15.261Z,9.66
2022-11-05T20:27:42.849Z,9.67
2022-11-05T20:30:12.473Z,9.67
2022-11-05T20:32:39.313Z,9.71
2022-11-05T20:35:06.470Z,9.73
2022-11-05T20:37:33.310Z,9.75
2022-11-05T20:40:00.145Z,9.75
2022-11-05T20:42:27.241Z,9.75
2022-11-05T20:44:54.259Z,9.75
2022-11-05T20:47:21.358Z,9.76
2022-11-05T20:49:48.771Z,9.76
2022-11-05T20:52:17.339Z,9.77
2022-11-05T20:54:44.709Z,9.77
2022-11-05T20:57:11.732Z,9.77
2022-11-05T20:59:38.575Z,9.77
2022-11-05T21:02:05.630Z,9.78
2022-11-05T21:04:33.038Z,9.79
2022-11-05T21:06:59.866Z,9.81
2022-11-05T21:09:27.233Z,9.81
2022-11-05T21:12:12.545Z,9.80
2022-11-05T21:14:39.681Z,9.78
2022-11-05T21:17:07.385Z,9.78
2022-11-05T21:19:35.239Z,9.77
2022-11-05T21:22:02.359Z,9.78
2022-11-05T21:24:29.224Z,9.77
2022-11-05T21:26:56.105Z,9.79
2022-11-05T21:29:23.335Z,9.79
2022-11-05T21:31:50.268Z,9.78
2022-11-05T21:34:17.392Z,9.77
2022-11-05T21:36:44.510Z,9.74
2022-11-05T21:39:13.747Z,9.74
2022-11-05T21:41:41.100Z,9.73
2022-11-05T21:44:08.120Z,9.73
2022-11-05T21:46:34.984Z,9.74
2022-11-05T21:49:02.518Z,9.74
2022-11-05T21:51:47.014Z,9.78
2022-11-05T21:54:31.785Z,9.77
2022-11-05T21:57:16.675Z,9.77
2022-11-05T21:59:49.863Z,9.77
2022-11-05T22:02:18.801Z,9.75
2022-11-05T22:04:47.536Z,9.74
2022-11-05T22:07:17.131Z,9.71
2022-11-05T22:09:44.225Z,9.70
2022-11-05T22:12:11.891Z,9.71
2022-11-05T22:14:38.864Z,9.72
2022-11-05T22:17:06.266Z,9.75
2022-11-05T22:19:33.454Z,9.77
2022-11-05T22:22:00.484Z,9.74
2022-11-05T22:24:30.615Z,9.73
2022-11-05T22:26:57.543Z,9.70
2022-11-05T22:29:24.562Z,9.70
2022-11-05T22:31:51.427Z,9.69
2022-11-05T22:34:18.556Z,9.68
2022-11-05T22:36:45.743Z,9.68
2022-11-05T22:39:14.522Z,9.69
2022-11-05T22:41:42.081Z,9.70
2022-11-05T22:44:10.489Z,9.69
2022-11-05T22:46:38.129Z,9.68
2022-11-05T22:49:06.398Z,9.66
2022-11-05T22:51:35.129Z,9.65
2022-11-05T22:54:04.501Z,9.65
2022-11-05T22:56:34.229Z,9.65
2022-11-05T22:59:01.845Z,9.64
2022-11-05T23:01:28.895Z,9.63
2022-11-05T23:03:57.762Z,9.61
2022-11-05T23:06:43.609Z,9.61
2022-11-05T23:09:34.405Z,9.60
2022-11-05T23:12:02.008Z,9.57
2022-11-05T23:14:30.120Z,9.54
2022-11-05T23:17:14.838Z,9.51
2022-11-05T23:19:59.605Z,9.49
2022-11-05T23:22:46.453Z,9.46
2022-11-05T23:25:17.034Z,9.42
2022-11-05T23:27:44.494Z,9.38
2022-11-05T23:30:15.979Z,9.35
2022-11-05T23:32:43.264Z,9.31
2022-11-05T23:35:12.523Z,9.29
2022-11-05T23:37:57.021Z,9.25
2022-11-05T23:40:26.854Z,9.24
2022-11-05T23:43:11.695Z,9.21
2022-11-05T23:45:58.362Z,9.20
2022-11-05T23:48:30.497Z,9.21
2022-11-05T23:51:00.840Z,9.20
2022-11-05T23:53:28.667Z,9.19
2022-11-05T23:55:59.430Z,9.17
2022-11-05T23:58:26.700Z,9.15
